createdAt,value
2018-05-29T00:01:21.804Z,14.37
2018-05-29T00:03:51.244Z,15.17
2018-05-29T00:06:23.897Z,15.40
2018-05-29T00:08:52.643Z,16.13
2018-05-29T00:11:25.376Z,15.27
2018-05-29T00:13:55.443Z,14.53
2018-05-29T00:16:28.886Z,15.63
2018-05-29T00:18:57.567Z,15.00
2018-05-29T00:21:28.499Z,15.57
2018-05-29T00:23:57.316Z,14.57
2018-05-29T00:26:30.818Z,14.40
2018-05-29T00:29:00.552Z,14.17
2018-05-29T00:31:42.984Z,14.77
2018-05-29T00:34:12.311Z,14.47
2018-05-29T00:36:40.972Z,14.47
2018-05-29T00:39:10.376Z,15.00
2018-05-29T00:41:40.165Z,14.33
2018-05-29T00:44:10.355Z,14.23
2018-05-29T00:46:42.651Z,15.57
2018-05-29T00:49:11.775Z,15.63
2018-05-29T00:51:44.835Z,13.83
2018-05-29T00:54:13.913Z,14.70
2018-05-29T00:56:47.295Z,15.50
2018-05-29T00:59:17.008Z,14.83
2018-05-29T01:01:49.644Z,15.37
2018-05-29T01:04:18.720Z,15.50
2018-05-29T01:06:55.173Z,16.03
2018-05-29T01:09:23.892Z,17.33
2018-05-29T01:11:57.517Z,16.80
2018-05-29T01:14:26.463Z,16.83
2018-05-29T01:16:58.205Z,16.50
2018-05-29T01:19:27.359Z,14.87
2018-05-29T01:22:01.885Z,16.30
2018-05-29T01:24:31.473Z,15.73
2018-05-29T01:27:04.148Z,15.73
2018-05-29T01:29:34.044Z,15.27
2018-05-29T01:32:05.563Z,15.27
2018-05-29T01:34:35.528Z,16.73
2018-05-29T01:37:09.139Z,15.17
2018-05-29T01:39:38.276Z,16.37
2018-05-29T01:42:20.684Z,17.73
2018-05-29T01:44:50.896Z,15.90
2018-05-29T01:47:20.352Z,16.77
2018-05-29T01:49:50.223Z,18.17
2018-05-29T01:52:19.216Z,18.57
2018-05-29T01:54:47.879Z,20.47
2018-05-29T01:57:21.522Z,20.00
2018-05-29T01:59:51.053Z,21.27
2018-05-29T02:02:24.051Z,19.83
2018-05-29T02:04:53.515Z,18.67
2018-05-29T02:07:26.808Z,18.73
2018-05-29T02:09:57.050Z,16.17
2018-05-29T02:12:28.172Z,15.93
2018-05-29T02:14:57.628Z,15.63
2018-05-29T02:17:31.259Z,16.83
2018-05-29T02:20:00.372Z,16.90
2018-05-29T02:25:52.233Z,15.67
2018-05-29T02:28:21.878Z,16.10
2018-05-29T02:30:52.135Z,15.60
2018-05-29T02:33:22.413Z,17.00
2018-05-29T02:35:51.853Z,18.17
2018-05-29T02:38:20.533Z,18.00
2018-05-29T02:40:50.336Z,17.50
2018-05-29T02:43:19.357Z,18.10
2018-05-29T02:45:48.060Z,19.27
2018-05-29T02:48:17.800Z,19.13
2018-05-29T02:50:49.025Z,19.83
2018-05-29T02:53:17.665Z,19.50
2018-05-29T02:55:51.296Z,20.07
2018-05-29T02:58:19.935Z,20.30
2018-05-29T03:00:52.687Z,20.07
2018-05-29T03:03:21.712Z,19.67
2018-05-29T03:05:55.975Z,17.63
2018-05-29T03:08:25.581Z,18.50
2018-05-29T03:11:00.601Z,17.67
2018-05-29T03:13:31.056Z,16.63
2018-05-29T03:16:12.249Z,17.63
2018-05-29T03:18:42.143Z,18.50
2018-05-29T03:21:11.931Z,20.57
2018-05-29T03:23:40.571Z,23.33
2018-05-29T03:26:10.277Z,23.57
2018-05-29T03:28:38.948Z,22.93
2018-05-29T03:31:20.148Z,22.93
2018-05-29T03:33:49.207Z,24.93
2018-05-29T03:36:18.596Z,22.00
2018-05-29T03:38:48.231Z,23.13
2018-05-29T03:41:18.165Z,22.37
2018-05-29T03:43:46.949Z,23.30
2018-05-29T03:46:20.319Z,23.00
2018-05-29T03:48:50.376Z,23.47
2018-05-29T03:51:22.890Z,23.13
2018-05-29T03:53:52.066Z,23.47
2018-05-29T03:56:23.012Z,23.67
2018-05-29T03:58:51.664Z,21.33
2018-05-29T04:01:26.044Z,21.97
2018-05-29T04:03:55.793Z,21.97
2018-05-29T04:06:38.051Z,23.63
2018-05-29T04:09:07.107Z,23.27
2018-05-29T04:11:37.111Z,22.13
2018-05-29T04:14:07.263Z,21.80
2018-05-29T04:16:37.330Z,22.03
2018-05-29T04:19:06.743Z,22.63
2018-05-29T04:21:37.340Z,21.83
2018-05-29T04:24:07.474Z,22.83
2018-05-29T04:26:40.567Z,23.07
2018-05-29T04:29:10.129Z,22.43
2018-05-29T04:31:43.510Z,22.23
2018-05-29T04:34:12.985Z,21.53
2018-05-29T04:36:45.964Z,20.77
2018-05-29T04:39:15.640Z,20.37
2018-05-29T04:41:56.716Z,19.07
2018-05-29T04:44:25.847Z,19.60
2018-05-29T04:46:55.264Z,19.17
2018-05-29T04:49:24.868Z,19.97
2018-05-29T04:51:54.574Z,18.97
2018-05-29T04:54:23.660Z,19.83
2018-05-29T04:56:56.843Z,18.90
2018-05-29T04:59:25.784Z,17.87
2018-05-29T05:01:58.409Z,18.17
2018-05-29T05:04:27.045Z,18.57
2018-05-29T05:07:02.316Z,17.50
2018-05-29T05:09:32.890Z,17.83
2018-05-29T05:12:05.304Z,17.20
2018-05-29T05:14:34.292Z,18.23
2018-05-29T05:17:07.125Z,16.97
2018-05-29T05:19:35.843Z,17.83
2018-05-29T05:22:10.225Z,17.03
2018-05-29T05:24:38.857Z,16.50
2018-05-29T05:27:21.167Z,17.43
2018-05-29T05:29:50.860Z,17.93
2018-05-29T05:32:19.547Z,18.20
2018-05-29T05:34:49.122Z,17.43
2018-05-29T05:37:19.135Z,18.17
2018-05-29T05:39:49.569Z,18.87
2018-05-29T05:42:22.675Z,18.87
2018-05-29T05:44:52.465Z,18.60
2018-05-29T05:47:24.596Z,17.75
2018-05-29T05:49:53.275Z,17.67
2018-05-29T05:52:26.919Z,17.37
2018-05-29T05:54:57.055Z,16.35
2018-05-29T05:57:29.920Z,17.85
2018-05-29T05:59:59.055Z,16.55
2018-05-29T06:02:42.079Z,17.10
2018-05-29T06:05:12.691Z,16.12
2018-05-29T06:07:42.200Z,16.80
2018-05-29T06:10:12.060Z,17.42
2018-05-29T06:12:41.100Z,17.08
2018-05-29T06:15:10.537Z,17.08
2018-05-29T06:17:40.723Z,16.15
2018-05-29T06:20:09.716Z,18.73
2018-05-29T06:22:43.175Z,18.55
2018-05-29T06:25:12.611Z,18.50
2018-05-29T06:27:46.430Z,17.95
2018-05-29T06:30:15.069Z,18.12
2018-05-29T06:32:49.284Z,18.80
2018-05-29T06:35:19.009Z,18.83
2018-05-29T06:37:50.233Z,17.20
2018-05-29T06:40:20.434Z,18.17
2018-05-29T06:42:51.805Z,19.40
2018-05-29T06:45:21.965Z,18.58
2018-05-29T06:48:03.720Z,18.80
2018-05-29T06:50:33.454Z,20.05
2018-05-29T06:53:03.640Z,20.05
2018-05-29T06:55:33.235Z,18.87
2018-05-29T06:58:03.206Z,21.27
2018-05-29T07:00:33.250Z,19.33
2018-05-29T07:03:03.292Z,19.62
2018-05-29T07:05:32.750Z,20.12
2018-05-29T07:08:05.983Z,19.52
2018-05-29T07:10:34.641Z,19.40
2018-05-29T07:13:16.833Z,19.17
2018-05-29T07:15:45.545Z,19.40
2018-05-29T07:18:15.328Z,18.90
2018-05-29T07:20:44.769Z,17.45
2018-05-29T07:23:13.533Z,18.67
2018-05-29T07:25:42.228Z,18.60
2018-05-29T07:28:15.345Z,19.17
2018-05-29T07:30:44.285Z,18.05
2018-05-29T07:33:17.792Z,19.33
2018-05-29T07:35:47.312Z,18.65
2018-05-29T07:38:20.831Z,17.90
2018-05-29T07:40:50.242Z,17.80
2018-05-29T07:43:22.993Z,20.02
2018-05-29T07:45:52.906Z,18.42
2018-05-29T07:48:25.414Z,16.33
2018-05-29T07:50:54.851Z,15.95
2018-05-29T07:53:27.351Z,17.85
2018-05-29T07:55:57.165Z,16.42
2018-05-29T07:58:29.017Z,16.17
2018-05-29T08:00:58.391Z,16.12
2018-05-29T08:03:31.452Z,17.90
2018-05-29T08:06:00.215Z,17.48
2018-05-29T08:08:41.496Z,17.08
2018-05-29T08:11:10.198Z,15.98
2018-05-29T08:13:39.320Z,16.35
2018-05-29T08:16:08.769Z,17.73
2018-05-29T08:18:38.541Z,17.45
2018-05-29T08:21:08.580Z,18.17
2018-05-29T08:23:41.996Z,18.12
2018-05-29T08:26:10.733Z,16.60
2018-05-29T08:28:44.180Z,16.67
2018-05-29T08:31:12.873Z,17.12
2018-05-29T08:33:55.611Z,16.35
2018-05-29T08:36:24.646Z,16.20
2018-05-29T08:38:53.390Z,14.32
2018-05-29T08:41:22.467Z,14.43
2018-05-29T08:43:52.757Z,15.48
2018-05-29T08:46:22.172Z,15.70
2018-05-29T08:48:54.653Z,15.45
2018-05-29T08:51:23.747Z,14.73
2018-05-29T08:53:56.322Z,14.30
2018-05-29T08:56:25.039Z,14.18
2018-05-29T08:58:58.115Z,14.70
2018-05-29T09:01:27.933Z,17.42
2018-05-29T09:04:02.202Z,16.35
2018-05-29T09:06:31.846Z,18.05
2018-05-29T09:09:04.639Z,15.18
2018-05-29T09:11:34.101Z,15.00
2018-05-29T09:14:16.292Z,15.43
2018-05-29T09:16:45.928Z,15.27
2018-05-29T09:19:14.708Z,15.60
2018-05-29T09:21:44.939Z,15.40
2018-05-29T09:24:13.610Z,15.40
2018-05-29T09:26:43.073Z,14.93
2018-05-29T09:29:15.836Z,14.68
2018-05-29T09:31:44.540Z,15.68
2018-05-29T09:34:16.636Z,15.32
2018-05-29T09:36:46.589Z,16.40
2018-05-29T09:39:18.512Z,15.65
2018-05-29T09:41:47.955Z,17.17
2018-05-29T09:44:22.493Z,14.87
2018-05-29T09:46:51.193Z,14.85
2018-05-29T09:49:23.907Z,15.75
2018-05-29T09:51:53.439Z,16.23
2018-05-29T09:54:26.605Z,15.27
2018-05-29T09:56:56.253Z,15.20
2018-05-29T09:59:28.555Z,16.05
2018-05-29T10:01:57.217Z,15.48
2018-05-29T10:04:39.198Z,14.82
2018-05-29T10:07:08.906Z,14.65
2018-05-29T10:09:38.239Z,16.12
2018-05-29T10:12:07.797Z,16.00
2018-05-29T10:14:37.650Z,15.85
2018-05-29T10:17:07.111Z,14.57
2018-05-29T10:19:36.818Z,13.25
2018-05-29T10:22:07.931Z,12.05
2018-05-29T10:24:38.896Z,12.60
2018-05-29T10:27:08.486Z,12.13
2018-05-29T10:29:42.180Z,12.73
2018-05-29T10:32:12.357Z,13.90
2018-05-29T10:34:44.806Z,12.88
2018-05-29T10:37:15.432Z,13.07
2018-05-29T10:39:46.697Z,12.37
2018-05-29T10:42:16.668Z,11.88
2018-05-29T10:44:49.545Z,10.68
2018-05-29T10:47:18.204Z,12.95
2018-05-29T10:50:00.707Z,12.10
2018-05-29T10:52:30.074Z,11.68
2018-05-29T10:54:59.492Z,12.10
2018-05-29T10:57:28.244Z,13.02
2018-05-29T10:59:58.783Z,12.57
2018-05-29T11:02:28.195Z,11.90
2018-05-29T11:05:00.425Z,11.80
2018-05-29T11:07:29.688Z,12.23
2018-05-29T11:10:02.553Z,12.23
2018-05-29T11:12:32.238Z,12.98
2018-05-29T11:15:06.388Z,10.80
2018-05-29T11:17:35.224Z,11.30
2018-05-29T11:20:17.216Z,10.80
2018-05-29T11:22:47.856Z,11.05
2018-05-29T11:25:17.428Z,10.23
2018-05-29T11:27:46.282Z,11.90
2018-05-29T11:30:16.597Z,10.98
2018-05-29T11:32:47.581Z,10.63
2018-05-29T11:35:18.035Z,11.68
2018-05-29T11:37:47.499Z,10.18
2018-05-29T11:40:17.758Z,11.20
2018-05-29T11:42:46.416Z,11.38
2018-05-29T11:45:19.927Z,11.02
2018-05-29T11:47:49.148Z,11.27
2018-05-29T11:50:22.098Z,12.50
2018-05-29T11:52:50.915Z,12.35
2018-05-29T11:55:24.859Z,11.57
2018-05-29T11:57:54.672Z,12.18
2018-05-29T12:00:28.688Z,11.00
2018-05-29T12:02:59.424Z,12.80
2018-05-29T12:05:28.396Z,12.27
2018-05-29T12:07:58.176Z,11.52
2018-05-29T12:10:31.338Z,12.40
2018-05-29T12:13:00.771Z,12.10
2018-05-29T12:15:32.735Z,12.98
2018-05-29T12:18:03.408Z,11.90
2018-05-29T12:20:36.201Z,12.82
2018-05-29T12:23:05.326Z,13.02
2018-05-29T12:25:37.785Z,13.75
2018-05-29T12:28:07.468Z,12.65
2018-05-29T12:30:40.502Z,12.60
2018-05-29T12:33:09.464Z,12.85
2018-05-29T12:35:43.321Z,12.10
2018-05-29T12:38:12.453Z,12.05
2018-05-29T12:40:44.868Z,12.13
2018-05-29T12:43:13.729Z,10.70
2018-05-29T12:45:56.767Z,11.25
2018-05-29T12:48:25.773Z,10.60
2018-05-29T12:50:54.977Z,10.93
2018-05-29T12:53:23.953Z,10.50
2018-05-29T12:55:54.757Z,12.63
2018-05-29T12:58:23.816Z,9.10
2018-05-29T13:00:55.831Z,7.43
2018-05-29T13:03:24.849Z,7.35
2018-05-29T13:05:57.902Z,6.72
2018-05-29T13:08:27.384Z,5.22
2018-05-29T13:11:00.352Z,4.65
2018-05-29T13:13:29.670Z,4.80
2018-05-29T13:16:03.224Z,4.85
2018-05-29T13:18:32.916Z,5.07
2018-05-29T13:21:05.566Z,4.77
2018-05-29T13:23:36.240Z,5.37
2018-05-29T13:26:10.560Z,5.87
2018-05-29T13:28:39.237Z,5.33
2018-05-29T13:31:20.429Z,5.63
2018-05-29T13:33:49.436Z,5.43
2018-05-29T13:36:18.152Z,5.93
2018-05-29T13:38:47.229Z,6.80
2018-05-29T13:41:16.438Z,8.10
2018-05-29T13:43:45.922Z,8.90
2018-05-29T13:46:18.862Z,8.03
2018-05-29T13:48:47.963Z,8.80
2018-05-29T13:51:20.798Z,8.47
2018-05-29T13:53:50.456Z,9.27
2018-05-29T13:56:22.863Z,9.00
2018-05-29T13:58:52.281Z,9.53
2018-05-29T14:01:23.728Z,11.10
2018-05-29T14:03:53.179Z,10.83
2018-05-29T14:06:28.104Z,8.63
2018-05-29T14:08:58.285Z,8.13
2018-05-29T14:11:30.857Z,8.30
2018-05-29T14:13:59.973Z,9.07
2018-05-29T14:16:32.380Z,11.33
2018-05-29T14:19:01.495Z,12.13
2018-05-29T14:21:33.779Z,14.63
2018-05-29T14:24:02.709Z,14.53
2018-05-29T14:26:36.358Z,16.57
2018-05-29T14:29:05.040Z,17.63
2018-05-29T14:31:46.304Z,18.40
2018-05-29T14:34:16.237Z,20.27
2018-05-29T14:36:45.772Z,19.77
2018-05-29T14:39:14.454Z,17.73
2018-05-29T14:41:44.472Z,17.63
2018-05-29T14:44:13.158Z,18.10
2018-05-29T14:46:45.304Z,18.57
2018-05-29T14:49:14.242Z,18.47
2018-05-29T14:51:47.119Z,17.93
2018-05-29T14:54:16.788Z,17.83
2018-05-29T14:56:50.100Z,19.20
2018-05-29T14:59:19.521Z,19.47
2018-05-29T15:01:52.791Z,20.27
2018-05-29T15:04:22.584Z,19.43
2018-05-29T15:06:56.845Z,20.80
2018-05-29T15:09:25.961Z,19.67
2018-05-29T15:11:59.468Z,19.13
2018-05-29T15:14:28.172Z,17.23
2018-05-29T15:17:01.865Z,18.03
2018-05-29T15:19:31.410Z,16.40
2018-05-29T15:22:03.811Z,14.40
2018-05-29T15:24:32.620Z,14.37
2018-05-29T15:27:06.987Z,11.80
2018-05-29T15:29:36.612Z,10.97
2018-05-29T15:32:18.523Z,10.33
2018-05-29T15:34:49.070Z,11.33
2018-05-29T15:37:17.825Z,12.40
2018-05-29T15:39:46.600Z,11.40
2018-05-29T15:42:15.857Z,10.73
2018-05-29T15:44:44.647Z,10.40
2018-05-29T15:47:16.819Z,9.60
2018-05-29T15:49:46.528Z,9.60
2018-05-29T15:54:47.470Z,8.40
2018-05-29T15:57:22.456Z,8.50
2018-05-29T15:59:51.574Z,7.63
2018-05-29T16:02:24.108Z,8.03
2018-05-29T16:04:53.096Z,8.30
2018-05-29T16:07:26.977Z,7.90
2018-05-29T16:09:56.143Z,7.03
2018-05-29T16:12:28.646Z,8.10
2018-05-29T16:14:58.268Z,7.17
2018-05-29T16:17:31.612Z,7.47
2018-05-29T16:20:00.329Z,7.43
2018-05-29T16:22:42.196Z,7.40
2018-05-29T16:25:11.534Z,7.37
2018-05-29T16:27:41.169Z,7.33
2018-05-29T16:30:11.397Z,7.93
2018-05-29T16:32:42.572Z,7.43
2018-05-29T16:35:11.205Z,7.23
2018-05-29T16:37:41.044Z,7.87
2018-05-29T16:40:10.228Z,7.90
2018-05-29T16:42:51.503Z,7.40
2018-05-29T16:45:20.479Z,7.23
2018-05-29T16:47:49.144Z,8.00
2018-05-29T16:50:19.202Z,8.30
2018-05-29T16:52:47.976Z,8.50
2018-05-29T16:55:17.780Z,7.33
2018-05-29T16:57:49.876Z,7.43
2018-05-29T17:00:18.542Z,8.20
2018-05-29T17:02:56.305Z,7.77
2018-05-29T17:05:25.995Z,8.27
2018-05-29T17:07:56.144Z,8.23
2018-05-29T17:10:24.878Z,7.20
2018-05-29T17:12:58.993Z,7.47
2018-05-29T17:15:27.734Z,6.67
2018-05-29T17:18:00.552Z,6.90
2018-05-29T17:20:31.269Z,6.27
2018-05-29T17:23:03.203Z,6.63
2018-05-29T17:25:33.372Z,5.73
2018-05-29T17:28:06.885Z,6.17
2018-05-29T17:30:35.711Z,5.70
2018-05-29T17:33:11.164Z,5.53
2018-05-29T17:35:40.137Z,6.37
2018-05-29T17:38:12.583Z,5.90
2018-05-29T17:40:42.439Z,5.97
2018-05-29T17:43:14.451Z,5.93
2018-05-29T17:45:44.090Z,6.03
2018-05-29T17:48:25.034Z,6.30
2018-05-29T17:50:53.828Z,5.63
2018-05-29T17:53:23.249Z,5.27
2018-05-29T17:55:53.409Z,5.30
2018-05-29T17:58:22.658Z,4.77
2018-05-29T18:00:51.389Z,5.30
2018-05-29T18:05:53.216Z,4.70
2018-05-29T18:08:25.256Z,5.13
2018-05-29T18:10:54.977Z,4.80
2018-05-29T18:13:27.941Z,4.67
2018-05-29T18:15:58.387Z,5.23
2018-05-29T18:18:30.599Z,4.67
2018-05-29T18:21:00.364Z,5.00
2018-05-29T18:23:31.817Z,5.10
2018-05-29T18:26:00.517Z,4.60
2018-05-29T18:28:34.189Z,5.53
2018-05-29T18:31:03.531Z,5.10
2018-05-29T18:33:36.902Z,5.50
2018-05-29T18:36:06.660Z,5.63
2018-05-29T18:38:39.448Z,6.37
2018-05-29T18:41:08.413Z,6.40
2018-05-29T18:43:41.837Z,5.97
2018-05-29T18:46:11.438Z,6.27
2018-05-29T18:48:45.016Z,6.73
2018-05-29T18:51:14.473Z,6.97
2018-05-29T18:53:48.287Z,6.83
2018-05-29T18:56:17.705Z,7.00
2018-05-29T18:58:49.080Z,7.23
2018-05-29T19:01:18.816Z,8.03
2018-05-29T19:03:51.893Z,7.40
2018-05-29T19:06:21.583Z,7.43
2018-05-29T19:08:54.257Z,8.23
2018-05-29T19:11:23.053Z,8.37
2018-05-29T19:13:56.565Z,6.87
2018-05-29T19:16:25.305Z,7.40
2018-05-29T19:19:07.863Z,7.90
2018-05-29T19:21:37.956Z,8.20
2018-05-29T19:24:07.812Z,7.93
2018-05-29T19:26:37.744Z,8.07
2018-05-29T19:29:06.668Z,8.27
2018-05-29T19:31:36.298Z,7.80
2018-05-29T19:34:06.912Z,7.23
2018-05-29T19:36:36.684Z,7.83
2018-05-29T19:39:18.854Z,7.27
2018-05-29T19:41:47.894Z,7.67
2018-05-29T19:44:18.321Z,7.93
2018-05-29T19:46:47.909Z,8.10
2018-05-29T19:49:17.800Z,7.57
2018-05-29T19:51:47.742Z,6.27
2018-05-29T19:54:16.968Z,6.40
2018-05-29T19:56:45.679Z,6.30
2018-05-29T19:59:28.059Z,5.93
2018-05-29T20:01:58.788Z,6.00
2018-05-29T20:04:27.461Z,5.80
2018-05-29T20:06:56.123Z,5.70
2018-05-29T20:09:25.061Z,6.03
2018-05-29T20:11:53.713Z,5.93
2018-05-29T20:14:26.704Z,5.37
2018-05-29T20:16:57.262Z,5.73
2018-05-29T20:19:29.678Z,5.33
2018-05-29T20:21:59.152Z,5.50
2018-05-29T20:24:31.426Z,5.20
2018-05-29T20:27:00.492Z,5.40
2018-05-29T20:29:32.791Z,5.00
2018-05-29T20:32:02.636Z,4.93
2018-05-29T20:34:34.173Z,5.70
2018-05-29T20:37:03.709Z,4.97
2018-05-29T20:39:36.889Z,5.33
2018-05-29T20:42:06.673Z,5.70
2018-05-29T20:44:39.363Z,5.70
2018-05-29T20:47:09.035Z,5.47
2018-05-29T20:49:50.452Z,5.07
2018-05-29T20:52:19.416Z,5.63
2018-05-29T20:54:50.125Z,5.33
2018-05-29T20:57:18.885Z,5.70
2018-05-29T20:59:47.876Z,5.60
2018-05-29T21:02:17.814Z,5.80
2018-05-29T21:04:49.514Z,5.07
2018-05-29T21:07:19.295Z,5.23
2018-05-29T21:09:51.890Z,5.13
2018-05-29T21:12:20.577Z,5.57
2018-05-29T21:14:58.565Z,5.10
2018-05-29T21:17:27.587Z,5.00
2018-05-29T21:19:56.547Z,5.07
2018-05-29T21:22:25.595Z,5.27
2018-05-29T21:25:08.070Z,5.03
2018-05-29T21:27:37.820Z,5.93
2018-05-29T21:30:07.672Z,5.80
2018-05-29T21:32:36.564Z,5.47
2018-05-29T21:35:06.129Z,5.00
2018-05-29T21:37:35.568Z,5.60
2018-05-29T21:40:09.800Z,5.73
2018-05-29T21:42:38.652Z,5.03
2018-05-29T21:45:20.377Z,5.60
2018-05-29T21:47:50.237Z,5.63
2018-05-29T21:50:23.476Z,5.60
2018-05-29T21:52:53.692Z,5.67
2018-05-29T21:55:22.991Z,5.67
2018-05-29T21:57:52.744Z,5.53
2018-05-29T22:00:22.756Z,5.63
2018-05-29T22:02:54.384Z,5.20
2018-05-29T22:05:26.797Z,5.40
2018-05-29T22:07:58.539Z,5.63
2018-05-29T22:10:30.711Z,5.97
2018-05-29T22:13:01.639Z,5.70
2018-05-29T22:15:30.751Z,6.00
2018-05-29T22:18:00.564Z,5.53
2018-05-29T22:20:30.190Z,6.47
2018-05-29T22:23:00.058Z,6.53
2018-05-29T22:25:29.445Z,5.90
2018-05-29T22:27:59.472Z,10.80
2018-05-29T22:30:30.756Z,11.27
2018-05-29T22:32:59.488Z,10.77
2018-05-29T22:35:34.269Z,9.60
2018-05-29T22:38:06.897Z,7.73
2018-05-29T22:40:39.074Z,7.20
2018-05-29T22:43:08.007Z,7.27
2018-05-29T22:45:37.783Z,7.30
2018-05-29T22:48:06.464Z,7.20
2018-05-29T22:50:40.874Z,8.17
2018-05-29T22:53:10.226Z,8.03
2018-05-29T22:55:41.964Z,8.03
2018-05-29T23:11:23.257Z,9.07
2018-05-29T23:13:53.235Z,8.30
2018-05-29T23:16:23.108Z,8.53
2018-05-29T23:18:55.167Z,7.67
2018-05-29T23:21:24.085Z,8.27
2018-05-29T23:23:58.286Z,8.37
2018-05-29T23:26:27.771Z,7.70
2018-05-29T23:29:01.445Z,7.70
2018-05-29T23:31:31.534Z,7.40
2018-05-29T23:34:02.242Z,7.37
2018-05-29T23:36:31.851Z,6.57
2018-05-29T23:39:05.145Z,6.83
2018-05-29T23:41:33.821Z,6.60
2018-05-29T23:44:06.968Z,7.07
2018-05-29T23:46:35.944Z,6.73
2018-05-29T23:51:38.720Z,7.93
2018-05-29T23:54:12.151Z,6.97
2018-05-29T23:56:40.868Z,6.47
2018-05-29T23:59:14.587Z,7.50
